aviador You're here:

CYZV Decoded Metar

SEPT-ILES in QC, CANADA
Report Time2017-09-26 03:00:00
UTC Time2017-09-26 03:39:34
Flight Rules lifr LIFR
WindVRB at 02 kt
Visibility9999 m
Phenomena:N/A
Clouds:Overcast 003 Hf
Expected CloudBase > 400 ft AGL from Temp-Dew spread
Ceiling300 ft
Temp11°C (ISA -4)
Dew Point10°C (94% RH)
AAT10.3°C
QNH1007 hPa
Density Alt115 ft
Elevation180 ft
Report Wrong Elevation
Raw Report
CYZV 260300Z VRB02KT 10SM OVC003 11/10 A2973 RMK SF8 VIS LWR E
SLP070=

Extra information for CYZV:More info

Metar Taf Metar & Taf Last 4 Metars F.Rules Stats Wind Profile Meteogram Temp Stats Airport Information Weather charts Add Link Nearby VenuesMetar ALERT Operation Metar Decoded Social comments